createdAt,value
2022-10-23T00:01:26.683Z,4.13
2022-10-23T00:04:01.513Z,5.22
2022-10-23T00:06:30.176Z,5.32
2022-10-23T00:08:58.210Z,4.55
2022-10-23T00:11:32.218Z,4.20
2022-10-23T00:14:06.050Z,3.88
2022-10-23T00:16:33.329Z,4.22
2022-10-23T00:19:00.174Z,4.10
2022-10-23T00:23:53.543Z,4.35
2022-10-23T00:26:20.519Z,4.47
2022-10-23T00:28:50.988Z,4.45
2022-10-23T00:31:19.211Z,5.03
2022-10-23T00:33:46.580Z,4.85
2022-10-23T00:36:15.994Z,4.32
2022-10-23T00:38:42.711Z,5.00
2022-10-23T00:41:14.485Z,5.82
2022-10-23T00:44:01.463Z,4.93
2022-10-23T00:46:28.743Z,5.25
2022-10-23T00:48:56.004Z,5.50
2022-10-23T00:51:22.941Z,6.00
2022-10-23T00:54:01.227Z,5.97
2022-10-23T00:56:42.098Z,5.50
2022-10-23T00:59:08.757Z,6.32
2022-10-23T01:01:35.535Z,6.60
2022-10-23T01:09:19.176Z,6.10
2022-10-23T01:11:56.630Z,6.32
2022-10-23T01:14:52.264Z,8.25
2022-10-23T01:17:21.804Z,7.05
2022-10-23T01:20:07.095Z,6.20
2022-10-23T01:23:05.012Z,5.85
2022-10-23T01:26:01.920Z,5.70
2022-10-23T01:28:40.649Z,5.82
2022-10-23T01:31:14.495Z,5.43
2022-10-23T01:33:58.898Z,6.45
2022-10-23T01:36:29.012Z,5.43
2022-10-23T01:41:46.368Z,6.45
2022-10-23T01:44:41.472Z,6.88
2022-10-23T01:47:11.471Z,6.47
2022-10-23T01:49:41.225Z,6.90
2022-10-23T01:52:12.833Z,5.38
2022-10-23T01:54:42.970Z,5.82
2022-10-23T01:57:13.024Z,6.70
2022-10-23T01:59:44.521Z,6.60
2022-10-23T02:02:13.197Z,6.40
2022-10-23T02:04:45.713Z,6.10
2022-10-23T02:07:12.314Z,7.22
2022-10-23T02:09:39.457Z,6.47
2022-10-23T02:12:11.820Z,6.35
2022-10-23T02:14:50.151Z,7.13
2022-10-23T02:17:26.402Z,6.53
2022-10-23T02:20:07.393Z,6.88
2022-10-23T02:22:49.106Z,6.13
2022-10-23T02:25:20.623Z,6.15
2022-10-23T02:27:50.940Z,6.65
2022-10-23T02:30:19.341Z,5.97
2022-10-23T02:32:53.470Z,6.97
2022-10-23T02:35:22.155Z,6.88
2022-10-23T02:37:58.504Z,6.55
2022-10-23T02:40:33.514Z,5.82
2022-10-23T02:43:18.810Z,6.22
2022-10-23T02:46:03.193Z,6.28
2022-10-23T02:48:41.304Z,5.65
2022-10-23T02:51:37.182Z,5.78
2022-10-23T02:54:16.658Z,5.70
2022-10-23T02:56:57.821Z,5.80
2022-10-23T02:59:42.995Z,5.93
2022-10-23T03:02:16.909Z,5.93
2022-10-23T03:04:44.305Z,7.18
2022-10-23T03:07:13.489Z,6.32
2022-10-23T03:09:40.094Z,5.78
2022-10-23T03:12:06.630Z,6.13
2022-10-23T03:14:33.173Z,6.32
2022-10-23T03:16:59.675Z,4.78
2022-10-23T03:19:26.346Z,5.85
2022-10-23T03:21:52.874Z,5.30
2022-10-23T03:24:19.421Z,5.85
2022-10-23T03:26:46.163Z,5.22
2022-10-23T03:31:39.049Z,5.60
2022-10-23T03:34:10.165Z,5.80
2022-10-23T03:36:37.518Z,5.82
2022-10-23T03:39:04.388Z,5.38
2022-10-23T03:41:31.342Z,5.50
2022-10-23T03:43:58.186Z,5.70
2022-10-23T03:46:24.829Z,6.68
2022-10-23T03:48:51.257Z,5.53
2022-10-23T03:51:17.717Z,5.50
2022-10-23T03:53:44.221Z,4.95
2022-10-23T03:56:10.761Z,5.57
2022-10-23T03:58:37.306Z,6.57
2022-10-23T04:01:03.974Z,5.72
2022-10-23T04:05:56.876Z,4.80
2022-10-23T04:08:23.432Z,5.85
2022-10-23T04:10:49.909Z,5.78
2022-10-23T04:13:16.377Z,6.32
2022-10-23T04:15:51.919Z,6.03
2022-10-23T04:18:19.478Z,5.45
2022-10-23T04:20:49.387Z,5.55
2022-10-23T04:23:16.922Z,5.75
2022-10-23T04:25:43.568Z,4.88
2022-10-23T04:30:36.672Z,5.82
2022-10-23T04:33:03.472Z,5.40
2022-10-23T04:35:30.039Z,6.18
2022-10-23T04:37:56.607Z,5.13
2022-10-23T04:40:23.067Z,5.90
2022-10-23T04:42:49.568Z,5.53
2022-10-23T04:45:16.032Z,6.15
2022-10-23T04:47:42.559Z,6.10
2022-10-23T04:50:09.187Z,6.03
2022-10-23T04:52:35.707Z,6.10
2022-10-23T04:55:02.183Z,6.32
2022-10-23T04:57:28.668Z,5.70
2022-10-23T04:59:55.129Z,4.80
2022-10-23T05:02:21.641Z,6.15
2022-10-23T05:04:48.172Z,5.78
2022-10-23T05:07:14.773Z,4.63
2022-10-23T05:09:41.444Z,5.97
2022-10-23T05:12:08.632Z,5.57
2022-10-23T05:14:35.139Z,5.78
2022-10-23T05:17:07.528Z,5.65
2022-10-23T05:19:40.330Z,5.43
2022-10-23T05:22:07.137Z,5.38
2022-10-23T05:27:00.097Z,6.70
2022-10-23T05:29:26.638Z,6.63
2022-10-23T05:31:56.823Z,5.53
2022-10-23T05:34:26.360Z,6.18
2022-10-23T05:36:53.306Z,5.75
2022-10-23T05:39:20.678Z,5.47
2022-10-23T05:41:47.331Z,5.40
2022-10-23T05:44:13.874Z,4.82
2022-10-23T05:46:43.871Z,5.78
2022-10-23T05:49:10.590Z,6.28
2022-10-23T05:51:38.842Z,5.45
2022-10-23T05:54:08.286Z,5.75
2022-10-23T07:17:33.216Z,6.50
2022-10-23T07:19:59.756Z,6.40
2022-10-23T07:38:40.394Z,7.55
2022-10-23T07:41:09.030Z,6.85
2022-10-23T07:43:39.683Z,6.88
2022-10-23T07:46:08.330Z,8.75
2022-10-23T07:48:34.804Z,9.90
2022-10-23T07:51:08.084Z,9.07
2022-10-23T07:53:52.705Z,9.77
2022-10-23T07:57:23.525Z,7.05
2022-10-23T07:59:50.105Z,8.43
2022-10-23T08:02:36.982Z,7.78
2022-10-23T08:05:04.082Z,9.35
2022-10-23T08:07:33.405Z,10.32
2022-10-23T08:09:59.858Z,9.95
2022-10-23T08:12:26.541Z,7.57
2022-10-23T08:17:19.762Z,8.23
2022-10-23T08:19:48.457Z,9.48
2022-10-23T08:22:15.121Z,9.07
2022-10-23T08:24:41.695Z,9.73
2022-10-23T08:27:29.366Z,7.75
2022-10-23T08:29:55.816Z,6.85
2022-10-23T08:32:22.359Z,8.88
2022-10-23T09:02:21.089Z,6.13
2022-10-23T09:17:05.758Z,5.78
2022-10-23T09:19:32.374Z,5.85
2022-10-23T09:21:59.295Z,5.25
2022-10-23T09:24:34.221Z,5.35
2022-10-23T09:27:01.025Z,4.72
2022-10-23T09:32:14.645Z,5.68
2022-10-23T09:34:55.518Z,4.80
2022-10-23T09:37:35.700Z,4.57
2022-10-23T09:40:14.711Z,4.90
2022-10-23T09:42:58.511Z,4.70
2022-10-23T09:45:33.407Z,5.20
2022-10-23T09:48:11.360Z,4.32
2022-10-23T09:51:05.078Z,4.93
2022-10-23T09:53:37.244Z,4.68
2022-10-23T09:56:27.375Z,3.78
2022-10-23T09:59:05.934Z,3.65
2022-10-23T10:01:36.488Z,4.05
2022-10-23T10:04:07.322Z,3.88
2022-10-23T10:06:56.956Z,3.72
2022-10-23T10:09:23.571Z,3.83
2022-10-23T10:11:58.418Z,3.75
2022-10-23T10:21:48.433Z,3.97
2022-10-23T10:24:23.822Z,3.17
2022-10-23T10:27:19.095Z,3.80
2022-10-23T10:30:04.494Z,3.70
2022-10-23T10:33:01.463Z,3.65
2022-10-23T10:35:48.760Z,2.70
2022-10-23T10:38:30.565Z,4.07
2022-10-23T10:41:21.545Z,2.65
2022-10-23T10:44:06.442Z,3.15
2022-10-23T10:46:58.053Z,3.35
2022-10-23T10:49:34.937Z,3.15
2022-10-23T10:52:22.008Z,2.88
2022-10-23T10:55:09.335Z,2.35
2022-10-23T10:58:13.182Z,3.13
2022-10-23T11:00:42.082Z,2.45
2022-10-23T11:03:20.460Z,2.67
2022-10-23T11:05:56.266Z,2.75
2022-10-23T11:08:44.386Z,2.05
2022-10-23T11:11:26.881Z,1.70
2022-10-23T11:13:54.209Z,1.70
2022-10-23T11:16:27.530Z,2.10
2022-10-23T11:19:16.407Z,1.40
2022-10-23T11:21:47.976Z,2.40
2022-10-23T11:24:59.325Z,2.15
2022-10-23T11:27:46.928Z,2.30
2022-10-23T11:30:19.497Z,2.05
2022-10-23T11:33:01.123Z,2.13
2022-10-23T11:35:42.962Z,1.63
2022-10-23T11:38:30.281Z,2.20
2022-10-23T11:41:03.702Z,2.25
2022-10-23T11:43:47.528Z,2.20
2022-10-23T11:46:35.755Z,2.80
2022-10-23T11:49:06.232Z,2.03
2022-10-23T11:51:37.130Z,2.03
2022-10-23T11:54:33.576Z,1.90
2022-10-23T11:57:15.156Z,2.13
2022-10-23T11:59:47.721Z,2.05
2022-10-23T12:02:28.255Z,2.42
2022-10-23T12:04:55.528Z,2.10
2022-10-23T12:07:32.194Z,2.10
2022-10-23T12:10:06.620Z,1.95
2022-10-23T12:12:41.085Z,1.92
2022-10-23T12:15:14.720Z,1.60
2022-10-23T12:17:43.815Z,2.10
2022-10-23T12:20:10.839Z,2.13
2022-10-23T12:22:52.511Z,1.98
2022-10-23T12:25:43.580Z,1.27
2022-10-23T12:28:25.377Z,2.20
2022-10-23T12:31:13.692Z,2.15
2022-10-23T12:33:49.835Z,1.80
2022-10-23T12:36:40.322Z,1.77
2022-10-23T12:39:27.324Z,2.22
2022-10-23T12:41:56.557Z,1.80
2022-10-23T12:44:25.399Z,2.10
2022-10-23T12:46:57.485Z,2.28
2022-10-23T12:49:47.287Z,2.30
2022-10-23T12:52:26.887Z,2.25
2022-10-23T12:54:53.527Z,1.90
2022-10-23T12:57:26.453Z,1.50
2022-10-23T13:00:04.665Z,2.42
2022-10-23T13:02:32.464Z,1.85
2022-10-23T13:05:02.638Z,1.90
2022-10-23T13:07:32.122Z,1.60
2022-10-23T13:10:00.133Z,1.70
2022-10-23T13:12:33.047Z,2.17
2022-10-23T13:15:16.760Z,1.77
2022-10-23T13:17:59.653Z,1.80
2022-10-23T13:20:30.107Z,1.60
2022-10-23T13:23:16.524Z,1.50
2022-10-23T13:25:45.754Z,1.40
2022-10-23T13:28:24.260Z,1.42
2022-10-23T13:31:28.038Z,1.90
2022-10-23T13:34:21.226Z,1.52
2022-10-23T13:37:02.065Z,1.80
2022-10-23T13:39:31.212Z,1.50
2022-10-23T13:42:09.963Z,1.40
2022-10-23T13:44:37.736Z,1.70
2022-10-23T13:47:04.730Z,2.17
2022-10-23T13:49:31.470Z,1.92
2022-10-23T13:56:58.486Z,2.05
2022-10-23T13:59:25.006Z,1.77
2022-10-23T14:01:52.730Z,1.80
2022-10-23T14:04:47.490Z,2.30
2022-10-23T14:07:16.635Z,2.47
2022-10-23T14:09:44.242Z,2.47
2022-10-23T14:15:57.616Z,2.22
2022-10-23T14:18:24.751Z,2.80
2022-10-23T14:20:51.668Z,2.80
2022-10-23T14:23:24.125Z,2.70
2022-10-23T14:26:04.837Z,2.38
2022-10-23T14:28:32.159Z,2.33
2022-10-23T14:31:14.819Z,2.53
2022-10-23T14:37:10.723Z,2.60
2022-10-23T14:40:27.319Z,2.75
2022-10-23T14:42:53.867Z,2.42
2022-10-23T14:45:20.523Z,2.50
2022-10-23T14:50:28.882Z,2.10
2022-10-23T14:52:55.502Z,1.92
2022-10-23T14:55:22.048Z,2.38
2022-10-23T14:57:48.916Z,2.20
2022-10-23T15:00:15.860Z,2.33
2022-10-23T15:02:51.848Z,2.17
2022-10-23T15:05:18.705Z,2.30
2022-10-23T15:07:50.263Z,2.60
2022-10-23T15:10:37.158Z,1.77
2022-10-23T15:13:24.603Z,2.97
2022-10-23T15:15:57.745Z,2.42
2022-10-23T15:18:27.427Z,2.70
2022-10-23T15:28:17.073Z,3.05
2022-10-23T15:30:57.125Z,2.75
2022-10-23T15:33:24.947Z,2.25
2022-10-23T15:35:55.528Z,3.03
2022-10-23T15:38:35.538Z,2.28
2022-10-23T15:41:17.204Z,3.38
2022-10-23T15:43:44.114Z,3.33
2022-10-23T15:46:11.103Z,2.70
2022-10-23T15:48:37.855Z,2.10
2022-10-23T15:53:44.202Z,2.28
2022-10-23T16:00:59.380Z,2.47
2022-10-23T16:19:22.473Z,3.25
2022-10-23T16:22:25.078Z,2.80
2022-10-23T16:25:27.325Z,3.05
2022-10-23T20:59:26.962Z,4.32
2022-10-23T21:29:13.728Z,5.03
2022-10-23T21:32:02.984Z,5.22
2022-10-23T22:15:33.705Z,6.07
2022-10-23T22:19:03.537Z,6.18
2022-10-23T22:27:50.551Z,6.10
2022-10-23T22:32:57.437Z,6.68
2022-10-23T22:39:21.579Z,5.97
2022-10-23T22:41:51.146Z,6.57
2022-10-23T22:44:18.375Z,6.40
2022-10-23T22:46:48.188Z,6.78
2022-10-23T22:53:00.986Z,6.47
2022-10-23T22:55:40.508Z,6.13
2022-10-23T22:58:20.441Z,6.93
2022-10-23T23:01:19.330Z,7.35
2022-10-23T23:06:33.780Z,6.72
2022-10-23T23:11:52.978Z,6.53
2022-10-23T23:14:25.409Z,6.88
2022-10-23T23:16:53.773Z,6.38
2022-10-23T23:19:34.633Z,6.47
2022-10-23T23:22:21.887Z,5.97
2022-10-23T23:24:48.351Z,6.80
2022-10-23T23:27:14.897Z,6.38
2022-10-23T23:29:43.150Z,6.78
2022-10-23T23:32:16.274Z,6.32
2022-10-23T23:34:43.121Z,6.18
2022-10-23T23:39:36.167Z,6.10
2022-10-23T23:42:02.705Z,6.13
2022-10-23T23:44:29.250Z,6.65
2022-10-23T23:46:56.050Z,6.47
2022-10-23T23:51:49.285Z,6.55
2022-10-23T23:54:16.125Z,7.57
2022-10-23T23:56:42.765Z,6.78
2022-10-23T23:59:09.368Z,6.38
